Pilot Vessel Akarana — ZMT2938 — position and weather

sailwx.info

Track history (hours):
 
Tides and Currents Weather Stations Pressure Air Temp Water Temp Dewpoint Dewpoint Depression Visibility Wind Speed Wind Dir Waves Ship Positions

Pilot Vessel Akarana

Last reported at 2015-May-05 12:33 UTC. Time now 2015-May-05 13:15 UTC.
Position S 36°48' E 174°49'.

Length 15 m; draft 1.6 m.

Type: Pilot. MMSI: 512000344.

Date/timePositionNaut miles runAvg speedWind from/ knotsBaromVisibWave heightAir tempDewpointWater temp
2015-May-05 12:33S 36°48' E 174°49'3 1.4
2015-May-05 10:33S 36°45' E 174°49'2 1.6
2015-May-05 09:33S 36°47' E 174°49'3 3.1
2015-May-05 08:33S 36°50' E 174°49'2 1.7
2015-May-05 07:28S 36°51' E 174°47'0 0.0
2015-May-05 06:33S 36°51' E 174°47'0 0.0
2015-May-05 05:32S 36°51' E 174°47'0 0.0
2015-May-05 04:29S 36°51' E 174°47'5 5.1
2015-May-05 03:33S 36°46' E 174°49'5 4.6
2015-May-05 02:33S 36°51' E 174°47'0 0.1
2015-May-05 01:30S 36°51' E 174°47'0 0.1
2015-May-04 23:33S 36°50' E 174°47'0 0.0
2015-May-04 04:31S 36°51' E 174°47'0 0.0
2015-May-04 03:27S 36°51' E 174°47'0 0.0
2015-May-04 02:32S 36°51' E 174°47'0 0.0
2015-May-03 22:26S 36°51' E 174°47'0 0.0
2015-May-03 21:33S 36°51' E 174°47'0 0.0
2015-May-03 09:21S 36°51' E 174°47'0 0.1
2015-May-03 08:33S 36°51' E 174°47'0 0.1
2015-May-03 07:33S 36°51' E 174°47'0 0.0
2015-May-03 06:33S 36°51' E 174°47'0 0.0
2015-May-03 05:33S 36°51' E 174°47'5 2.3
2015-May-03 03:34S 36°46' E 174°49'5 4.6
2015-May-03 02:33S 36°51' E 174°47'0 0.0
2015-May-03 01:33S 36°51' E 174°47'2 2.2
2015-May-03 00:33S 36°50' E 174°49'2 2.2
2015-May-02 23:33S 36°51' E 174°47'0 0.0
2015-May-02 22:34S 36°51' E 174°47'0 0.0
2015-May-02 21:33S 36°51' E 174°47'0 0.0
2015-May-02 20:33S 36°51' E 174°47'0 0.0
2015-May-02 19:33S 36°51' E 174°47'0 0.0
2015-May-02 18:33S 36°51' E 174°47'0 0.0
2015-May-02 17:33S 36°51' E 174°47'0 0.0
2015-May-02 16:33S 36°51' E 174°47'0 0.0
2015-May-02 10:11S 36°51' E 174°47'4 5.8
2015-May-02 09:33S 36°47' E 174°48'4 3.6
2015-May-02 08:33S 36°44' E 174°51'4 4.0
2015-May-02 07:33S 36°48' E 174°48'3 3.2
2015-May-02 06:33S 36°51' E 174°47'0 0.0
2015-May-01 22:31S 36°51' E 174°47'0 0.0
2015-May-01 21:32S 36°51' E 174°47'3 3.6
2015-May-01 20:33S 36°48' E 174°49'3 3.2
2015-May-01 19:30S 36°51' E 174°47'0 0.1
2015-May-01 18:24S 36°51' E 174°47'0 0.1
2015-May-01 13:23S 36°50' E 174°47'4 4.8
2015-May-01 12:33S 36°46' E 174°48'4 4.5
2015-May-01 11:33S 36°51' E 174°47'0 0.0
2015-May-01 10:07S 36°51' E 174°47'0 0.0
2015-May-01 09:31S 36°51' E 174°47'0 0.0
2015-May-01 08:33S 36°51' E 174°47'3 3.0
2015-May-01 07:33S 36°48' E 174°49'1 1.1
2015-May-01 06:33S 36°49' E 174°49'5 5.3
2015-May-01 05:34S 36°44' E 174°50'4 0.7
2015-Apr-30 23:29S 36°49' E 174°49'2 1.2
2015-Apr-30 21:32S 36°46' E 174°49'5 4.7
2015-Apr-30 20:28S 36°51' E 174°47'1 0.1
2015-Apr-29 22:17S 36°50' E 174°45'1 2.0
2015-Apr-29 21:33S 36°51' E 174°47'0 0.0
2015-Apr-29 20:33S 36°51' E 174°47'0 0.0
2015-Apr-29 19:33S 36°51' E 174°47'0 0.0
2015-Apr-29 18:33S 36°51' E 174°47'0 0.3
2015-Apr-29 17:19S 36°50' E 174°47'0 0.3
2015-Apr-29 16:33S 36°51' E 174°47'0 0.0
2015-Apr-29 13:23S 36°51' E 174°47'0 0.0
2015-Apr-29 12:33S 36°51' E 174°47'0 0.0
2015-Apr-29 10:33S 36°51' E 174°47'0 0.1
2015-Apr-29 09:34S 36°51' E 174°47'0 0.1
2015-Apr-29 08:32S 36°51' E 174°47'1 0.6
2015-Apr-29 07:33S 36°50' E 174°48'2 2.1
2015-Apr-29 06:33S 36°49' E 174°49'3 1.3
2015-Apr-29 04:33S 36°51' E 174°47'0 0.0
2015-Apr-29 03:33S 36°51' E 174°47'2 2.4
2015-Apr-29 02:33S 36°49' E 174°49'2 2.3
2015-Apr-29 01:32S 36°51' E 174°47'0 0.0
2015-Apr-29 00:29S 36°51' E 174°47'0 0.0
2015-Apr-28 22:29S 36°51' E 174°47'0 0.3
2015-Apr-28 21:32S 36°51' E 174°47'0 0.2
2015-Apr-28 19:30S 36°51' E 174°47'0 0.0
2015-Apr-28 18:33S 36°51' E 174°47'4 4.0
2015-Apr-28 17:31S 36°47' E 174°49'4 4.0
2015-Apr-28 16:33S 36°50' E 174°47'0 0.1
2015-Apr-28 11:32S 36°51' E 174°47'0 0.3
2015-Apr-28 10:28S 36°50' E 174°47'2 2.5
2015-Apr-28 09:33S 36°49' E 174°49'3 2.5
2015-Apr-28 08:33S 36°51' E 174°47'0 0.0
2015-Apr-28 07:33S 36°51' E 174°47'0 0.0
2015-Apr-28 06:31S 36°51' E 174°47'3 3.5
2015-Apr-28 05:33S 36°48' E 174°49'3 1.1
2015-Apr-28 02:33S 36°51' E 174°47'0 0.0
2015-Apr-28 00:21S 36°51' E 174°47'0 0.0
2015-Apr-27 23:34S 36°51' E 174°47'0 0.0
2015-Apr-27 22:33S 36°51' E 174°47'1 1.5
2015-Apr-27 21:33S 36°50' E 174°45'4 4.1
2015-Apr-27 20:31S 36°47' E 174°49'4 3.9
2015-Apr-27 19:33S 36°51' E 174°47'0 0.0
2015-Apr-27 18:33S 36°51' E 174°47'5 4.7
2015-Apr-27 17:33S 36°46' E 174°49'5 4.3
2015-Apr-27 16:30S 36°50' E 174°47'0 0.0
2015-Apr-27 10:26S 36°51' E 174°47'3 3.4
2015-Apr-27 09:33S 36°49' E 174°50'4 3.2
2015-Apr-27 08:28S 36°45' E 174°49'3 2.8
2015-Apr-27 07:33S 36°48' E 174°49'1 1.4
2015-Apr-27 06:33S 36°49' E 174°49'2 1.8
2015-Apr-27 05:14S 36°51' E 174°47'0 0.0
2015-Apr-27 04:32S 36°51' E 174°47'0 0.0
2015-Apr-27 03:29S 36°51' E 174°47'0 0.0
2015-Apr-27 01:33S 36°51' E 174°47'0 0.0
2015-Apr-26 22:30S 36°51' E 174°47'0 0.1
2015-Apr-26 19:05S 36°50' E 174°47'0 0.6
2015-Apr-26 18:33S 36°51' E 174°47'0 0.0
2015-Apr-26 17:33S 36°51' E 174°47'0 0.3
2015-Apr-26 16:29S 36°50' E 174°47'0 0.1
2015-Apr-26 11:30S 36°51' E 174°47'2 2.6
2015-Apr-26 10:33S 36°48' E 174°48'3 3.4
2015-Apr-26 09:33S 36°45' E 174°50'3 1.5
2015-Apr-26 07:34S 36°48' E 174°49'3 2.9
2015-Apr-26 06:33S 36°51' E 174°47'0 0.3
2015-Apr-26 05:31S 36°50' E 174°47'0 0.3
2015-Apr-26 04:33S 36°51' E 174°47'0 0.0
2015-Apr-26 03:33S 36°51' E 174°47'0 0.0
2015-Apr-26 02:33S 36°51' E 174°47'1 1.2
2015-Apr-26 01:33S 36°51' E 174°48'1 1.2
2015-Apr-26 00:32S 36°51' E 174°47'0 0.0
2015-Apr-25 23:33S 36°51' E 174°47'0 0.0
2015-Apr-25 20:33S 36°51' E 174°47'0 0.0
2015-Apr-25 19:33S 36°51' E 174°47'0 0.0
2015-Apr-25 18:33S 36°51' E 174°47'  
Track history (hours):
 
Tides and Currents Weather Stations Pressure Air Temp Water Temp Dewpoint Dewpoint Depression Visibility Wind Speed Wind Dir Waves Ship Positions

Pilot Vessel Akarana

Last reported at 2015-May-05 12:33 UTC. Time now 2015-May-05 13:15 UTC.
Position S 36°48' E 174°49'.

Length 15 m; draft 1.6 m.

Type: Pilot. MMSI: 512000344.

Date/timePositionNaut miles runAvg speedWind from/ knotsBaromVisibWave heightAir tempDewpointWater temp
2015-May-05 12:33S 36°48' E 174°49'3 1.4
2015-May-05 10:33S 36°45' E 174°49'2 1.6
2015-May-05 09:33S 36°47' E 174°49'3 3.1
2015-May-05 08:33S 36°50' E 174°49'2 1.7
2015-May-05 07:28S 36°51' E 174°47'0 0.0
2015-May-05 06:33S 36°51' E 174°47'0 0.0
2015-May-05 05:32S 36°51' E 174°47'0 0.0
2015-May-05 04:29S 36°51' E 174°47'5 5.1
2015-May-05 03:33S 36°46' E 174°49'5 4.6
2015-May-05 02:33S 36°51' E 174°47'0 0.1
2015-May-05 01:30S 36°51' E 174°47'0 0.1
2015-May-04 23:33S 36°50' E 174°47'0 0.0
2015-May-04 04:31S 36°51' E 174°47'0 0.0
2015-May-04 03:27S 36°51' E 174°47'0 0.0
2015-May-04 02:32S 36°51' E 174°47'0 0.0
2015-May-03 22:26S 36°51' E 174°47'0 0.0
2015-May-03 21:33S 36°51' E 174°47'0 0.0
2015-May-03 09:21S 36°51' E 174°47'0 0.1
2015-May-03 08:33S 36°51' E 174°47'0 0.1
2015-May-03 07:33S 36°51' E 174°47'0 0.0
2015-May-03 06:33S 36°51' E 174°47'0 0.0
2015-May-03 05:33S 36°51' E 174°47'5 2.3
2015-May-03 03:34S 36°46' E 174°49'5 4.6
2015-May-03 02:33S 36°51' E 174°47'0 0.0
2015-May-03 01:33S 36°51' E 174°47'2 2.2
2015-May-03 00:33S 36°50' E 174°49'2 2.2
2015-May-02 23:33S 36°51' E 174°47'0 0.0
2015-May-02 22:34S 36°51' E 174°47'0 0.0
2015-May-02 21:33S 36°51' E 174°47'0 0.0
2015-May-02 20:33S 36°51' E 174°47'0 0.0
2015-May-02 19:33S 36°51' E 174°47'0 0.0
2015-May-02 18:33S 36°51' E 174°47'0 0.0
2015-May-02 17:33S 36°51' E 174°47'0 0.0
2015-May-02 16:33S 36°51' E 174°47'0 0.0
2015-May-02 10:11S 36°51' E 174°47'4 5.8
2015-May-02 09:33S 36°47' E 174°48'4 3.6
2015-May-02 08:33S 36°44' E 174°51'4 4.0
2015-May-02 07:33S 36°48' E 174°48'3 3.2
2015-May-02 06:33S 36°51' E 174°47'0 0.0
2015-May-01 22:31S 36°51' E 174°47'0 0.0
2015-May-01 21:32S 36°51' E 174°47'3 3.6
2015-May-01 20:33S 36°48' E 174°49'3 3.2
2015-May-01 19:30S 36°51' E 174°47'0 0.1
2015-May-01 18:24S 36°51' E 174°47'0 0.1
2015-May-01 13:23S 36°50' E 174°47'4 4.8
2015-May-01 12:33S 36°46' E 174°48'4 4.5
2015-May-01 11:33S 36°51' E 174°47'0 0.0
2015-May-01 10:07S 36°51' E 174°47'0 0.0
2015-May-01 09:31S 36°51' E 174°47'0 0.0
2015-May-01 08:33S 36°51' E 174°47'3 3.0
2015-May-01 07:33S 36°48' E 174°49'1 1.1
2015-May-01 06:33S 36°49' E 174°49'5 5.3
2015-May-01 05:34S 36°44' E 174°50'4 0.7
2015-Apr-30 23:29S 36°49' E 174°49'2 1.2
2015-Apr-30 21:32S 36°46' E 174°49'5 4.7
2015-Apr-30 20:28S 36°51' E 174°47'1 0.1
2015-Apr-29 22:17S 36°50' E 174°45'1 2.0
2015-Apr-29 21:33S 36°51' E 174°47'0 0.0
2015-Apr-29 20:33S 36°51' E 174°47'0 0.0
2015-Apr-29 19:33S 36°51' E 174°47'0 0.0
2015-Apr-29 18:33S 36°51' E 174°47'0 0.3
2015-Apr-29 17:19S 36°50' E 174°47'0 0.3
2015-Apr-29 16:33S 36°51' E 174°47'0 0.0
2015-Apr-29 13:23S 36°51' E 174°47'0 0.0
2015-Apr-29 12:33S 36°51' E 174°47'0 0.0
2015-Apr-29 10:33S 36°51' E 174°47'0 0.1
2015-Apr-29 09:34S 36°51' E 174°47'0 0.1
2015-Apr-29 08:32S 36°51' E 174°47'1 0.6
2015-Apr-29 07:33S 36°50' E 174°48'2 2.1
2015-Apr-29 06:33S 36°49' E 174°49'3 1.3
2015-Apr-29 04:33S 36°51' E 174°47'0 0.0
2015-Apr-29 03:33S 36°51' E 174°47'2 2.4
2015-Apr-29 02:33S 36°49' E 174°49'2 2.3
2015-Apr-29 01:32S 36°51' E 174°47'0 0.0
2015-Apr-29 00:29S 36°51' E 174°47'0 0.0
2015-Apr-28 22:29S 36°51' E 174°47'0 0.3
2015-Apr-28 21:32S 36°51' E 174°47'0 0.2
2015-Apr-28 19:30S 36°51' E 174°47'0 0.0
2015-Apr-28 18:33S 36°51' E 174°47'4 4.0
2015-Apr-28 17:31S 36°47' E 174°49'4 4.0
2015-Apr-28 16:33S 36°50' E 174°47'0 0.1
2015-Apr-28 11:32S 36°51' E 174°47'0 0.3
2015-Apr-28 10:28S 36°50' E 174°47'2 2.5
2015-Apr-28 09:33S 36°49' E 174°49'3 2.5
2015-Apr-28 08:33S 36°51' E 174°47'0 0.0
2015-Apr-28 07:33S 36°51' E 174°47'0 0.0
2015-Apr-28 06:31S 36°51' E 174°47'3 3.5
2015-Apr-28 05:33S 36°48' E 174°49'3 1.1
2015-Apr-28 02:33S 36°51' E 174°47'0 0.0
2015-Apr-28 00:21S 36°51' E 174°47'0 0.0
2015-Apr-27 23:34S 36°51' E 174°47'0 0.0
2015-Apr-27 22:33S 36°51' E 174°47'1 1.5
2015-Apr-27 21:33S 36°50' E 174°45'4 4.1
2015-Apr-27 20:31S 36°47' E 174°49'4 3.9
2015-Apr-27 19:33S 36°51' E 174°47'0 0.0
2015-Apr-27 18:33S 36°51' E 174°47'5 4.7
2015-Apr-27 17:33S 36°46' E 174°49'5 4.3
2015-Apr-27 16:30S 36°50' E 174°47'0 0.0
2015-Apr-27 10:26S 36°51' E 174°47'3 3.4
2015-Apr-27 09:33S 36°49' E 174°50'4 3.2
2015-Apr-27 08:28S 36°45' E 174°49'3 2.8
2015-Apr-27 07:33S 36°48' E 174°49'1 1.4
2015-Apr-27 06:33S 36°49' E 174°49'2 1.8
2015-Apr-27 05:14S 36°51' E 174°47'0 0.0
2015-Apr-27 04:32S 36°51' E 174°47'0 0.0
2015-Apr-27 03:29S 36°51' E 174°47'0 0.0
2015-Apr-27 01:33S 36°51' E 174°47'0 0.0
2015-Apr-26 22:30S 36°51' E 174°47'0 0.1
2015-Apr-26 19:05S 36°50' E 174°47'0 0.6
2015-Apr-26 18:33S 36°51' E 174°47'0 0.0
2015-Apr-26 17:33S 36°51' E 174°47'0 0.3
2015-Apr-26 16:29S 36°50' E 174°47'0 0.1
2015-Apr-26 11:30S 36°51' E 174°47'2 2.6
2015-Apr-26 10:33S 36°48' E 174°48'3 3.4
2015-Apr-26 09:33S 36°45' E 174°50'3 1.5
2015-Apr-26 07:34S 36°48' E 174°49'3 2.9
2015-Apr-26 06:33S 36°51' E 174°47'0 0.3
2015-Apr-26 05:31S 36°50' E 174°47'0 0.3
2015-Apr-26 04:33S 36°51' E 174°47'0 0.0
2015-Apr-26 03:33S 36°51' E 174°47'0 0.0
2015-Apr-26 02:33S 36°51' E 174°47'1 1.2
2015-Apr-26 01:33S 36°51' E 174°48'1 1.2
2015-Apr-26 00:32S 36°51' E 174°47'0 0.0
2015-Apr-25 23:33S 36°51' E 174°47'0 0.0
2015-Apr-25 20:33S 36°51' E 174°47'0 0.0
2015-Apr-25 19:33S 36°51' E 174°47'0 0.0
2015-Apr-25 18:33S 36°51' E 174°47'  

Dump ship's entire track history